Aviation Digital Data Service (ADDS)

Output produced by METARs form (0702 UTC 30 July 2014)
found at http://aviationweather.gov/adds/metars/
 
KPSM 300529Z 3006/3106 VRB03KT P6SM BKN080 
     FM301200 36004KT P6SM SCT015 BKN050 
     FM301500 11005KT P6SM VCSH BKN050 
     FM310000 14003KT P6SM BKN250